Terminal Aerodrome Forecast
Issued by NWS

Home | Current Version | Previous Version | Text Only | Print | Product List | Glossary On
Versions: 1 2 3 4 5 6 7 8 9 10 11 12 13 14 15 16 17 18 19 20 21
000
FTUS43 KBIS 280500 RRA
TAFDIK
TAF
KDIK 280547Z 2806/2906 15004KT P6SM SCT090
     FM280700 16005KT P6SM BKN070 OVC100
     FM281200 13003KT P6SM SCT080 BKN110
     FM281700 15007KT P6SM BKN100
     FM282100 19009KT P6SM SCT060 SCT150
     FM290400 23008KT P6SM FEW020 SCT080=

USA.gov is the U.S. government's official web portal to all federal, state and local government web resources and services.